createdAt,value
2022-07-29T00:00:01.157Z,1.23
2022-07-29T00:02:28.814Z,1.15
2022-07-29T00:04:55.672Z,1.20
2022-07-29T00:07:22.167Z,0.80
2022-07-29T00:09:51.983Z,1.08
2022-07-29T00:12:21.395Z,1.02
2022-07-29T00:14:53.071Z,1.33
2022-07-29T00:17:19.487Z,1.00
2022-07-29T00:19:45.958Z,1.00
2022-07-29T00:22:12.378Z,1.10
2022-07-29T00:24:38.800Z,1.27
2022-07-29T00:27:05.272Z,0.93
2022-07-29T00:29:33.925Z,1.10
2022-07-29T00:32:01.476Z,1.00
2022-07-29T00:34:46.775Z,1.23
2022-07-29T00:37:13.225Z,1.08
2022-07-29T00:39:39.706Z,1.13
2022-07-29T00:42:06.571Z,1.20
2022-07-29T00:44:37.795Z,0.95
2022-07-29T00:47:04.358Z,1.13
2022-07-29T00:49:30.892Z,1.20
2022-07-29T00:51:58.177Z,1.23
2022-07-29T00:54:24.725Z,1.40
2022-07-29T00:56:51.173Z,1.20
2022-07-29T00:59:17.616Z,1.17
2022-07-29T01:01:44.138Z,1.17
2022-07-29T01:04:10.745Z,1.17
2022-07-29T01:06:37.506Z,0.93
2022-07-29T01:09:04.252Z,1.40
2022-07-29T01:11:30.697Z,1.40
2022-07-29T01:13:57.859Z,1.02
2022-07-29T01:16:43.121Z,1.25
2022-07-29T01:19:49.917Z,1.30
2022-07-29T01:22:29.856Z,1.20
2022-07-29T01:25:33.143Z,1.40
2022-07-29T01:28:18.239Z,1.35
2022-07-29T01:30:47.415Z,1.30
2022-07-29T01:33:38.313Z,1.20
2022-07-29T01:36:12.903Z,1.25
2022-07-29T01:38:42.275Z,1.48
2022-07-29T01:41:17.429Z,1.60
2022-07-29T01:43:57.110Z,1.20
2022-07-29T01:46:32.999Z,1.10
2022-07-29T01:49:09.576Z,1.25
2022-07-29T01:51:55.359Z,1.20
2022-07-29T01:54:38.270Z,1.38
2022-07-29T01:57:07.795Z,1.40
2022-07-29T01:59:37.532Z,1.30
2022-07-29T02:02:07.236Z,1.35
2022-07-29T02:04:36.818Z,1.27
2022-07-29T02:07:07.002Z,1.75
2022-07-29T02:09:36.883Z,1.27
2022-07-29T02:12:04.910Z,1.52
2022-07-29T02:14:39.419Z,1.58
2022-07-29T02:17:06.116Z,1.67
2022-07-29T02:19:34.518Z,1.42
2022-07-29T02:22:02.575Z,1.77
2022-07-29T02:24:30.829Z,1.52
2022-07-29T02:27:00.423Z,1.58
2022-07-29T02:29:29.489Z,1.80
2022-07-29T02:31:58.015Z,1.70
2022-07-29T02:34:25.568Z,1.50
2022-07-29T02:36:53.156Z,1.52
2022-07-29T02:39:20.737Z,1.77
2022-07-29T02:41:59.644Z,1.35
2022-07-29T02:44:31.284Z,1.90
2022-07-29T02:47:12.289Z,1.60
2022-07-29T02:49:56.162Z,1.70
2022-07-29T02:53:06.648Z,1.67
2022-07-29T02:55:38.311Z,1.80
2022-07-29T02:58:14.461Z,1.35
2022-07-29T03:00:41.918Z,1.52
2022-07-29T03:03:17.026Z,1.75
2022-07-29T03:05:43.798Z,1.70
2022-07-29T03:08:12.579Z,1.70
2022-07-29T03:10:46.478Z,1.63
2022-07-29T03:13:14.104Z,1.65
2022-07-29T03:15:40.923Z,1.60
2022-07-29T03:18:07.927Z,1.80
2022-07-29T03:20:34.498Z,1.70
2022-07-29T03:23:01.258Z,1.77
2022-07-29T03:25:28.352Z,1.50
2022-07-29T03:27:54.987Z,1.55
2022-07-29T03:30:22.227Z,1.80
2022-07-29T03:32:52.080Z,1.60
2022-07-29T03:35:20.421Z,1.63
2022-07-29T03:37:47.261Z,1.58
2022-07-29T03:40:19.110Z,1.50
2022-07-29T03:42:46.671Z,1.58
2022-07-29T03:45:19.070Z,1.40
2022-07-29T03:47:57.073Z,1.98
2022-07-29T03:50:26.757Z,1.38
2022-07-29T03:52:53.493Z,1.40
2022-07-29T03:55:20.234Z,1.75
2022-07-29T03:57:48.281Z,1.60
2022-07-29T04:00:16.414Z,1.35
2022-07-29T04:02:49.142Z,1.70
2022-07-29T04:05:16.930Z,1.50
2022-07-29T04:07:48.016Z,1.40
2022-07-29T04:10:16.710Z,1.63
2022-07-29T04:12:43.691Z,1.52
2022-07-29T04:15:10.744Z,1.48
2022-07-29T04:17:37.527Z,1.73
2022-07-29T04:20:05.033Z,1.65
2022-07-29T04:22:31.721Z,1.75
2022-07-29T04:25:03.348Z,1.58
2022-07-29T04:27:30.532Z,1.52
2022-07-29T04:29:57.609Z,1.55
2022-07-29T04:32:24.860Z,1.40
2022-07-29T04:34:51.540Z,1.55
2022-07-29T04:37:18.191Z,1.75
2022-07-29T04:39:44.653Z,1.55
2022-07-29T04:42:11.098Z,1.35
2022-07-29T04:44:39.703Z,1.52
2022-07-29T04:47:09.848Z,1.52
2022-07-29T04:49:39.021Z,1.70
2022-07-29T04:52:06.572Z,1.60
2022-07-29T04:54:33.146Z,1.48
2022-07-29T04:56:59.597Z,1.65
2022-07-29T04:59:27.584Z,1.67
2022-07-29T05:01:54.137Z,1.30
2022-07-29T05:04:21.010Z,1.65
2022-07-29T05:06:48.677Z,1.98
2022-07-29T05:09:15.339Z,1.60
2022-07-29T05:11:41.792Z,1.90
2022-07-29T05:14:08.245Z,1.75
2022-07-29T05:16:34.972Z,1.90
2022-07-29T05:19:01.517Z,1.65
2022-07-29T05:21:27.966Z,1.95
2022-07-29T05:23:54.406Z,1.55
2022-07-29T05:26:22.042Z,1.60
2022-07-29T05:28:48.558Z,1.80
2022-07-29T05:31:15.839Z,1.95
2022-07-29T05:33:42.578Z,1.60
2022-07-29T05:36:09.633Z,1.80
2022-07-29T05:38:37.040Z,2.00
2022-07-29T05:41:03.886Z,2.10
2022-07-29T05:43:30.908Z,1.90
2022-07-29T05:45:57.792Z,1.85
2022-07-29T05:48:24.722Z,1.80
2022-07-29T05:50:51.210Z,1.75
2022-07-29T05:53:19.597Z,2.30
2022-07-29T05:55:46.811Z,1.75
2022-07-29T05:58:13.449Z,1.70
2022-07-29T06:00:39.888Z,1.92
2022-07-29T06:03:06.482Z,1.80
2022-07-29T06:05:32.975Z,1.73
2022-07-29T06:07:59.439Z,1.60
2022-07-29T06:10:26.318Z,1.60
2022-07-29T06:12:53.768Z,1.90
2022-07-29T06:15:20.520Z,1.95
2022-07-29T06:18:00.853Z,2.20
2022-07-29T06:20:32.283Z,1.83
2022-07-29T06:22:59.138Z,1.75
2022-07-29T06:25:25.847Z,1.77
2022-07-29T06:27:53.256Z,1.63
2022-07-29T06:30:19.755Z,2.20
2022-07-29T06:32:46.233Z,1.85
2022-07-29T06:35:37.689Z,1.70
2022-07-29T06:37:59.993Z,1.98
2022-07-29T06:40:45.491Z,1.42
2022-07-29T06:43:11.973Z,1.90
2022-07-29T06:45:42.160Z,2.03
2022-07-29T06:50:35.150Z,1.90
2022-07-29T06:53:01.561Z,1.95
2022-07-29T06:55:28.275Z,1.67
2022-07-29T06:57:54.671Z,1.90
2022-07-29T07:00:21.434Z,2.20
2022-07-29T07:02:47.886Z,1.90
2022-07-29T07:05:14.449Z,2.40
2022-07-29T07:07:40.854Z,2.40
2022-07-29T07:10:07.689Z,2.20
2022-07-29T07:12:34.141Z,2.08
2022-07-29T07:15:00.853Z,1.85
2022-07-29T07:17:27.300Z,1.77
2022-07-29T07:19:53.760Z,2.17
2022-07-29T07:22:20.246Z,1.70
2022-07-29T07:24:46.681Z,2.17
2022-07-29T07:27:13.156Z,2.00
2022-07-29T07:29:42.051Z,2.00
2022-07-29T07:32:11.044Z,2.70
2022-07-29T07:34:38.769Z,2.10
2022-07-29T07:37:06.551Z,1.75
2022-07-29T07:39:33.036Z,1.88
2022-07-29T07:41:59.629Z,1.90
2022-07-29T07:44:26.106Z,2.03
2022-07-29T07:46:52.670Z,2.10
2022-07-29T07:49:19.647Z,2.00
2022-07-29T07:51:50.867Z,2.05
2022-07-29T07:54:18.434Z,1.92
2022-07-29T07:56:49.943Z,2.05
2022-07-29T07:59:19.453Z,1.80
2022-07-29T08:01:47.992Z,2.15
2022-07-29T08:04:27.502Z,1.95
2022-07-29T08:06:55.245Z,1.98
2022-07-29T08:09:29.445Z,2.20
2022-07-29T08:11:57.592Z,1.88
2022-07-29T08:14:24.058Z,2.10
2022-07-29T08:16:50.811Z,2.60
2022-07-29T08:19:17.488Z,1.88
2022-07-29T08:21:43.925Z,2.00
2022-07-29T08:24:28.864Z,2.22
2022-07-29T08:26:55.533Z,1.90
2022-07-29T08:29:22.019Z,2.03
2022-07-29T08:31:48.498Z,2.20
2022-07-29T08:34:15.148Z,2.03
2022-07-29T08:36:41.686Z,1.80
2022-07-29T08:39:08.285Z,2.08
2022-07-29T08:41:34.869Z,1.92
2022-07-29T08:44:01.329Z,2.03
2022-07-29T08:46:27.868Z,2.03
2022-07-29T08:48:55.673Z,2.25
2022-07-29T08:51:22.680Z,2.38
2022-07-29T08:53:51.216Z,2.15
2022-07-29T08:56:19.749Z,2.08
2022-07-29T08:58:52.288Z,2.30
2022-07-29T09:01:35.129Z,1.85
2022-07-29T09:04:05.580Z,2.20
2022-07-29T09:06:34.311Z,1.80
2022-07-29T09:09:01.376Z,1.80
2022-07-29T09:11:28.167Z,1.95
2022-07-29T09:13:55.068Z,1.73
2022-07-29T09:16:50.955Z,1.88
2022-07-29T09:19:21.415Z,1.50
2022-07-29T09:22:00.121Z,1.42
2022-07-29T09:24:40.124Z,1.95
2022-07-29T09:27:20.743Z,1.52
2022-07-29T09:29:47.740Z,1.45
2022-07-29T09:32:14.340Z,1.67
2022-07-29T09:34:40.811Z,1.60
2022-07-29T09:37:07.362Z,1.98
2022-07-29T09:39:37.355Z,1.80
2022-07-29T09:42:06.257Z,1.60
2022-07-29T09:44:44.094Z,1.70
2022-07-29T09:47:10.957Z,2.17
2022-07-29T09:49:52.706Z,1.60
2022-07-29T09:52:19.198Z,2.08
2022-07-29T09:54:45.925Z,2.10
2022-07-29T09:57:30.883Z,2.75
2022-07-29T10:00:06.380Z,2.08
2022-07-29T10:02:35.176Z,1.60
2022-07-29T10:05:04.882Z,1.75
2022-07-29T10:07:57.351Z,1.58
2022-07-29T10:10:30.441Z,1.63
2022-07-29T10:13:04.405Z,3.08
2022-07-29T10:15:52.310Z,2.45
2022-07-29T10:18:20.988Z,2.20
2022-07-29T10:20:47.892Z,2.28
2022-07-29T10:23:14.973Z,1.88
2022-07-29T10:25:52.880Z,2.60
2022-07-29T10:28:19.308Z,2.13
2022-07-29T10:30:47.774Z,2.38
2022-07-29T10:33:38.284Z,2.50
2022-07-29T10:36:17.585Z,2.40
2022-07-29T10:39:18.374Z,2.53
2022-07-29T10:42:20.004Z,2.28
2022-07-29T10:44:47.696Z,2.30
2022-07-29T10:47:28.005Z,2.90
2022-07-29T10:49:58.641Z,2.63
2022-07-29T10:52:59.510Z,2.88
2022-07-29T10:56:11.433Z,2.50
2022-07-29T10:58:42.412Z,2.47
2022-07-29T11:01:37.072Z,2.53
2022-07-29T11:04:06.186Z,3.15
2022-07-29T11:07:10.662Z,3.20
2022-07-29T11:09:38.489Z,2.67
2022-07-29T11:12:25.985Z,2.92
2022-07-29T11:14:53.079Z,2.20
2022-07-29T11:17:19.825Z,2.30
2022-07-29T11:19:52.107Z,2.53
2022-07-29T11:22:35.147Z,2.72
2022-07-29T11:25:50.305Z,2.50
2022-07-29T11:28:22.960Z,3.10
2022-07-29T11:30:54.199Z,2.90
2022-07-29T11:33:54.581Z,2.65
2022-07-29T11:36:20.088Z,3.35
2022-07-29T11:39:27.037Z,2.90
2022-07-29T11:42:28.343Z,3.20
2022-07-29T11:45:44.273Z,2.28
2022-07-29T11:50:49.509Z,2.25
2022-07-29T11:53:16.503Z,2.47
2022-07-29T11:55:51.217Z,2.17
2022-07-29T11:58:24.853Z,1.92
2022-07-29T12:00:52.631Z,1.95
2022-07-29T12:03:35.387Z,1.90
2022-07-29T12:06:04.077Z,1.70
2022-07-29T12:08:31.189Z,1.77
2022-07-29T12:10:57.823Z,1.90
2022-07-29T12:13:37.663Z,1.42
2022-07-29T12:16:07.453Z,1.70
2022-07-29T12:18:34.006Z,1.90
2022-07-29T12:21:05.307Z,1.88
2022-07-29T12:23:34.978Z,2.00
2022-07-29T12:28:32.065Z,1.83
2022-07-29T12:30:58.710Z,2.20
2022-07-29T12:33:28.582Z,2.10
2022-07-29T12:36:09.429Z,2.25
2022-07-29T12:38:41.585Z,1.98
2022-07-29T12:41:08.122Z,1.95
2022-07-29T12:43:34.589Z,2.13
2022-07-29T12:46:15.743Z,1.90
2022-07-29T12:48:44.070Z,2.28
2022-07-29T12:51:12.834Z,1.80
2022-07-29T12:53:39.401Z,2.50
2022-07-29T12:56:20.770Z,2.20
2022-07-29T12:58:53.540Z,1.98
2022-07-29T13:01:22.316Z,1.90
2022-07-29T13:03:57.608Z,1.70
2022-07-29T13:06:30.471Z,1.85
2022-07-29T13:09:08.164Z,2.00
2022-07-29T13:11:48.150Z,1.65
2022-07-29T13:14:32.687Z,2.10
2022-07-29T13:17:13.323Z,2.20
2022-07-29T13:19:45.500Z,2.10
2022-07-29T13:22:14.234Z,2.50
2022-07-29T13:24:51.490Z,1.95
2022-07-29T13:27:20.205Z,2.28
2022-07-29T13:29:47.486Z,2.13
2022-07-29T13:32:14.877Z,2.45
2022-07-29T13:34:41.951Z,2.40
2022-07-29T13:37:08.517Z,2.55
2022-07-29T13:39:35.082Z,2.17
2022-07-29T13:42:02.120Z,2.03
2022-07-29T13:44:28.689Z,2.00
2022-07-29T13:46:55.148Z,2.65
2022-07-29T13:49:21.645Z,2.00
2022-07-29T13:51:48.190Z,3.13
2022-07-29T13:54:14.718Z,2.42
2022-07-29T13:56:44.345Z,2.35
2022-07-29T13:59:13.154Z,2.28
2022-07-29T14:01:42.622Z,2.78
2022-07-29T14:04:10.828Z,2.92
2022-07-29T14:06:40.577Z,2.25
2022-07-29T14:09:10.146Z,2.75
2022-07-29T14:11:37.295Z,2.38
2022-07-29T14:14:03.926Z,2.42
2022-07-29T14:16:30.561Z,2.70
2022-07-29T14:18:57.159Z,2.08
2022-07-29T14:21:23.799Z,2.53
2022-07-29T14:23:53.100Z,2.55
2022-07-29T14:26:24.215Z,1.98
2022-07-29T14:28:51.168Z,2.70
2022-07-29T14:31:17.834Z,2.30
2022-07-29T14:33:46.244Z,2.35
2022-07-29T14:36:17.255Z,2.40
2022-07-29T14:38:44.530Z,2.10
2022-07-29T14:41:11.169Z,2.17
2022-07-29T14:43:37.854Z,2.05
2022-07-29T14:46:08.314Z,2.03
2022-07-29T14:48:35.126Z,2.03
2022-07-29T14:51:04.718Z,1.92
2022-07-29T14:53:31.669Z,2.08
2022-07-29T14:56:10.293Z,2.08
2022-07-29T14:58:51.512Z,2.45
2022-07-29T15:01:18.348Z,1.90
2022-07-29T15:03:44.955Z,2.25
2022-07-29T15:06:11.627Z,2.00
2022-07-29T15:08:38.431Z,2.03
2022-07-29T15:11:05.037Z,2.05
2022-07-29T15:13:31.548Z,1.70
2022-07-29T15:16:00.222Z,1.67
2022-07-29T15:18:29.297Z,1.67
2022-07-29T15:20:55.796Z,1.90
2022-07-29T15:23:22.431Z,2.13
2022-07-29T15:25:50.008Z,1.77
2022-07-29T15:28:16.579Z,1.92
2022-07-29T15:30:43.520Z,2.25
2022-07-29T15:33:10.648Z,1.80
2022-07-29T15:35:40.586Z,1.67
2022-07-29T15:38:07.956Z,1.30
2022-07-29T15:40:34.643Z,1.65
2022-07-29T15:43:06.871Z,1.35
2022-07-29T15:46:06.805Z,2.05
2022-07-29T15:48:33.593Z,1.50
2022-07-29T15:51:01.028Z,1.50
2022-07-29T15:53:27.547Z,1.30
2022-07-29T15:55:54.183Z,1.60
2022-07-29T15:58:20.815Z,1.42
2022-07-29T16:00:48.028Z,1.50
2022-07-29T16:03:18.091Z,1.33
2022-07-29T16:05:44.747Z,1.25
2022-07-29T16:08:11.333Z,1.30
2022-07-29T16:10:37.990Z,1.33
2022-07-29T16:13:07.414Z,1.70
2022-07-29T16:15:34.059Z,1.50
2022-07-29T16:18:00.895Z,1.50
2022-07-29T16:20:30.256Z,1.30
2022-07-29T16:22:56.928Z,1.38
2022-07-29T16:25:38.361Z,1.30
2022-07-29T16:28:13.352Z,1.17
2022-07-29T16:30:39.984Z,1.45
2022-07-29T16:33:08.479Z,1.80
2022-07-29T16:35:39.530Z,1.80
2022-07-29T16:38:06.829Z,1.50
2022-07-29T16:40:35.917Z,1.30
2022-07-29T16:43:02.757Z,1.50
2022-07-29T16:45:32.670Z,1.55
2022-07-29T16:48:12.307Z,1.40
2022-07-29T16:50:39.640Z,1.52
2022-07-29T16:53:06.564Z,1.33
2022-07-29T16:55:33.500Z,1.50
2022-07-29T16:58:00.099Z,1.58
2022-07-29T17:00:26.651Z,1.73
2022-07-29T17:02:53.203Z,1.30
2022-07-29T17:05:19.833Z,1.50
2022-07-29T17:07:46.510Z,1.80
2022-07-29T17:10:13.283Z,1.70
2022-07-29T17:12:41.138Z,1.40
2022-07-29T17:15:09.975Z,1.60
2022-07-29T17:17:39.283Z,1.40
2022-07-29T17:20:22.198Z,1.55
2022-07-29T17:22:48.771Z,1.40
2022-07-29T17:25:20.446Z,1.75
2022-07-29T17:27:51.266Z,1.90
2022-07-29T17:30:18.290Z,1.35
2022-07-29T17:32:44.871Z,1.92
2022-07-29T17:35:31.178Z,1.80
2022-07-29T17:38:00.141Z,1.60
2022-07-29T17:40:26.670Z,1.50
2022-07-29T17:42:53.275Z,1.33
2022-07-29T17:45:19.820Z,1.63
2022-07-29T17:47:47.833Z,1.55
2022-07-29T17:50:14.566Z,1.85
2022-07-29T17:52:41.756Z,1.35
2022-07-29T17:55:10.347Z,1.40
2022-07-29T17:57:36.903Z,1.67
2022-07-29T18:00:05.509Z,1.30
2022-07-29T18:02:37.627Z,1.88
2022-07-29T18:05:05.269Z,1.42
2022-07-29T18:07:31.818Z,1.30
2022-07-29T18:10:00.550Z,1.10
2022-07-29T18:12:27.618Z,1.42
2022-07-29T18:14:54.066Z,1.70
2022-07-29T18:17:20.524Z,1.50
2022-07-29T18:19:48.224Z,1.35
2022-07-29T18:22:15.220Z,1.60
2022-07-29T18:24:44.661Z,1.52
2022-07-29T18:27:11.209Z,1.73
2022-07-29T18:29:37.882Z,2.05
2022-07-29T18:32:05.011Z,1.40
2022-07-29T18:34:32.159Z,1.77
2022-07-29T18:37:01.822Z,3.08
2022-07-29T18:39:29.408Z,1.60
2022-07-29T18:41:56.034Z,1.90
2022-07-29T18:44:24.972Z,1.65
2022-07-29T18:46:54.352Z,2.22
2022-07-29T18:49:21.906Z,1.85
2022-07-29T18:51:49.816Z,2.10
2022-07-29T18:54:20.179Z,1.60
2022-07-29T18:56:47.756Z,1.90
2022-07-29T18:59:19.758Z,2.00
2022-07-29T19:01:47.425Z,2.25
2022-07-29T19:04:14.732Z,2.05
2022-07-29T19:06:44.903Z,2.17
2022-07-29T19:09:11.484Z,2.40
2022-07-29T19:11:38.703Z,2.00
2022-07-29T19:14:06.302Z,2.00
2022-07-29T19:16:34.088Z,2.10
2022-07-29T19:19:03.462Z,2.55
2022-07-29T19:21:30.529Z,2.42
2022-07-29T19:24:01.608Z,2.33
2022-07-29T19:26:36.579Z,2.03
2022-07-29T19:29:04.129Z,1.95
2022-07-29T19:31:33.286Z,2.40
2022-07-29T19:34:03.017Z,2.10
2022-07-29T19:36:31.855Z,2.00
2022-07-29T19:38:59.953Z,2.30
2022-07-29T19:41:27.375Z,2.50
2022-07-29T19:43:54.203Z,2.88
2022-07-29T19:46:24.575Z,2.47
2022-07-29T19:51:17.655Z,2.67
2022-07-29T19:53:44.193Z,2.67
2022-07-29T19:56:13.762Z,3.25
2022-07-29T19:58:41.746Z,2.80
2022-07-29T20:01:10.960Z,2.53
2022-07-29T20:03:40.547Z,3.10
2022-07-29T20:06:07.669Z,3.17
2022-07-29T20:08:34.365Z,3.13
2022-07-29T20:11:00.948Z,3.38
2022-07-29T20:13:27.550Z,2.70
2022-07-29T20:15:54.128Z,2.88
2022-07-29T20:18:20.688Z,2.90
2022-07-29T20:20:48.192Z,2.60
2022-07-29T20:23:16.002Z,2.90
2022-07-29T20:25:42.635Z,2.58
2022-07-29T20:28:09.150Z,2.65
2022-07-29T20:30:35.679Z,3.15
2022-07-29T20:33:05.172Z,2.92
2022-07-29T20:35:31.896Z,2.58
2022-07-29T20:37:58.474Z,3.50
2022-07-29T20:40:26.662Z,2.80
2022-07-29T20:42:54.728Z,2.92
2022-07-29T20:45:25.616Z,2.90
2022-07-29T20:47:52.819Z,2.83
2022-07-29T20:50:23.869Z,3.42
2022-07-29T20:52:51.619Z,3.10
2022-07-29T20:55:18.180Z,3.13
2022-07-29T20:57:44.688Z,2.92
2022-07-29T21:00:11.950Z,2.90
2022-07-29T21:02:38.878Z,3.25
2022-07-29T21:05:08.880Z,3.00
2022-07-29T21:07:35.686Z,2.90
2022-07-29T21:10:02.450Z,3.08
2022-07-29T21:12:30.193Z,3.25
2022-07-29T21:15:13.592Z,3.22
2022-07-29T21:17:46.419Z,3.35
2022-07-29T21:20:15.437Z,2.83
2022-07-29T21:22:42.419Z,2.80
2022-07-29T21:25:10.708Z,3.28
2022-07-29T21:27:56.275Z,3.20
2022-07-29T21:30:23.012Z,2.67
2022-07-29T21:32:49.533Z,3.15
2022-07-29T21:35:35.758Z,3.00
2022-07-29T21:38:02.832Z,2.75
2022-07-29T21:40:31.525Z,3.20
2022-07-29T21:42:58.107Z,3.33
2022-07-29T21:45:25.491Z,3.20
2022-07-29T21:47:52.054Z,2.85
2022-07-29T21:50:18.815Z,3.42
2022-07-29T21:52:45.452Z,3.40
2022-07-29T21:55:13.626Z,3.97
2022-07-29T21:57:40.460Z,2.85
2022-07-29T22:00:10.366Z,3.10
2022-07-29T22:02:37.094Z,2.85
2022-07-29T22:05:04.161Z,4.68
2022-07-29T22:07:54.672Z,3.03
2022-07-29T22:10:17.347Z,2.90
2022-07-29T22:12:43.823Z,2.97
2022-07-29T22:15:11.220Z,3.30
2022-07-29T22:17:39.770Z,3.38
2022-07-29T22:20:06.699Z,3.03
2022-07-29T22:22:33.209Z,2.97
2022-07-29T22:24:59.790Z,3.00
2022-07-29T22:27:26.289Z,2.65
2022-07-29T22:29:52.737Z,3.10
2022-07-29T22:32:19.320Z,2.90
2022-07-29T22:34:46.706Z,3.20
2022-07-29T22:37:13.250Z,2.80
2022-07-29T22:39:39.721Z,2.80
2022-07-29T22:42:06.368Z,2.50
2022-07-29T22:44:33.247Z,2.97
2022-07-29T22:47:00.733Z,3.00
2022-07-29T22:49:28.556Z,3.53
2022-07-29T22:51:55.036Z,3.33
2022-07-29T22:54:21.759Z,2.78
2022-07-29T22:56:48.452Z,4.05
2022-07-29T22:59:14.922Z,3.40
2022-07-29T23:01:41.437Z,3.45
2022-07-29T23:04:07.993Z,3.55
2022-07-29T23:06:34.632Z,3.28
2022-07-29T23:09:01.156Z,3.10
2022-07-29T23:11:28.285Z,3.40
2022-07-29T23:13:54.710Z,3.60
2022-07-29T23:16:26.447Z,3.15
2022-07-29T23:18:53.861Z,3.00
2022-07-29T23:21:20.934Z,3.03
2022-07-29T23:23:48.493Z,3.33
2022-07-29T23:26:16.833Z,3.92
2022-07-29T23:28:44.692Z,3.25
2022-07-29T23:31:11.644Z,2.88
2022-07-29T23:33:38.219Z,2.97
2022-07-29T23:36:04.749Z,3.20
2022-07-29T23:38:31.311Z,3.28
2022-07-29T23:40:58.712Z,3.15
2022-07-29T23:43:25.266Z,2.72
2022-07-29T23:45:51.787Z,3.53
2022-07-29T23:48:20.791Z,3.60
2022-07-29T23:50:47.287Z,3.30
2022-07-29T23:53:13.764Z,3.20
2022-07-29T23:55:40.243Z,3.17
2022-07-29T23:58:06.689Z,3.65
